createdAt,value
2023-04-22T00:04:37.962Z,3.97
2023-04-22T00:09:44.142Z,3.30
2023-04-22T00:14:49.996Z,2.13
2023-04-22T00:19:56.768Z,3.33
2023-04-22T00:25:02.488Z,2.72
2023-04-22T00:30:10.143Z,2.53
2023-04-22T00:35:15.860Z,2.45
2023-04-22T00:40:22.323Z,2.40
2023-04-22T00:45:27.999Z,2.70
2023-04-22T00:50:33.401Z,2.33
2023-04-22T00:55:39.080Z,2.55
2023-04-22T01:00:44.780Z,5.03
2023-04-22T01:05:51.278Z,2.92
2023-04-22T01:10:58.637Z,2.40
2023-04-22T01:16:03.827Z,2.92
2023-04-22T01:21:09.370Z,3.38
2023-04-22T01:26:15.084Z,1.85
2023-04-22T01:31:20.820Z,3.13
2023-04-22T01:36:27.008Z,2.90
2023-04-22T01:41:33.136Z,3.13
2023-04-22T01:46:38.921Z,2.80
2023-04-22T01:51:45.448Z,2.30
2023-04-22T01:56:55.653Z,2.35
2023-04-22T02:02:01.828Z,1.88
2023-04-22T02:07:07.434Z,2.90
2023-04-22T02:12:18.900Z,2.47
2023-04-22T02:17:24.567Z,3.08
2023-04-22T02:22:30.298Z,3.28
2023-04-22T02:27:37.912Z,3.03
2023-04-22T02:32:44.390Z,3.97
2023-04-22T02:37:50.059Z,3.08
2023-04-22T02:42:56.183Z,2.58
2023-04-22T02:48:01.933Z,2.63
2023-04-22T02:53:08.588Z,3.15
2023-04-22T02:58:14.185Z,3.25
2023-04-22T03:03:19.850Z,4.00
2023-04-22T03:08:26.365Z,2.45
2023-04-22T03:13:31.704Z,5.00
2023-04-22T03:18:37.173Z,2.72
2023-04-22T03:23:43.865Z,2.72
2023-04-22T03:28:49.957Z,3.97
2023-04-22T03:33:55.611Z,4.80
2023-04-22T03:39:10.212Z,7.30
2023-04-22T03:44:15.801Z,4.70
2023-04-22T03:49:22.268Z,4.75
2023-04-22T03:54:28.062Z,4.90
2023-04-22T03:59:34.553Z,5.10
2023-04-22T04:04:40.502Z,4.63
2023-04-22T04:09:46.874Z,5.40
2023-04-22T04:14:52.984Z,5.35
2023-04-22T04:20:00.235Z,5.38
2023-04-22T04:25:07.287Z,5.80
2023-04-22T04:30:18.503Z,5.28
2023-04-22T04:35:31.561Z,5.95
2023-04-22T04:45:49.192Z,4.85
2023-04-22T04:51:01.230Z,6.57
2023-04-22T04:56:12.266Z,6.28
2023-04-22T05:01:18.213Z,6.85
2023-04-22T05:06:25.478Z,6.43
2023-04-22T05:11:38.461Z,6.03
2023-04-22T05:16:52.371Z,6.00
2023-04-22T05:27:04.160Z,8.07
2023-04-22T05:32:10.777Z,6.95
2023-04-22T05:37:16.386Z,6.45
2023-04-22T05:47:28.861Z,6.13
2023-04-22T05:52:35.183Z,7.90
2023-04-22T05:57:47.516Z,6.32
2023-04-22T06:03:19.069Z,4.90
2023-04-22T06:08:24.860Z,5.50
2023-04-22T06:13:30.687Z,4.30
2023-04-22T06:18:38.131Z,3.60
2023-04-22T06:23:50.287Z,2.90
2023-04-22T06:28:56.243Z,3.55
2023-04-22T06:34:02.714Z,3.25
2023-04-22T06:39:08.531Z,3.15
2023-04-22T06:44:35.323Z,2.83
2023-04-22T06:49:58.590Z,3.33
2023-04-22T06:55:11.554Z,3.63
2023-04-22T07:00:17.421Z,3.28
2023-04-22T07:05:22.949Z,3.88
2023-04-22T07:10:29.142Z,4.30
2023-04-22T07:15:53.993Z,2.72
2023-04-22T07:20:59.468Z,3.08
2023-04-22T07:26:05.532Z,3.53
2023-04-22T07:31:11.264Z,3.97
2023-04-22T07:36:16.949Z,2.92
2023-04-22T07:41:22.522Z,3.15
2023-04-22T07:46:28.058Z,3.28
2023-04-22T07:51:33.602Z,3.50
2023-04-22T07:56:39.280Z,2.80
2023-04-22T08:01:47.124Z,3.75
2023-04-22T08:06:52.683Z,3.30
2023-04-22T08:11:58.932Z,3.78
2023-04-22T08:17:04.550Z,3.13
2023-04-22T08:22:10.408Z,3.78
2023-04-22T08:27:16.064Z,3.13
2023-04-22T08:32:23.043Z,3.35
2023-04-22T08:37:29.051Z,3.42
2023-04-22T08:42:35.243Z,2.97
2023-04-22T08:47:41.770Z,3.13
2023-04-22T08:57:53.181Z,2.75
2023-04-22T09:03:02.788Z,3.90
2023-04-22T09:08:09.520Z,4.60
2023-04-22T09:13:15.515Z,2.83
2023-04-22T09:18:21.772Z,2.55
2023-04-22T09:23:27.613Z,2.95
2023-04-22T09:28:33.108Z,2.55
2023-04-22T09:33:40.726Z,2.55
2023-04-22T09:39:05.879Z,2.80
2023-04-22T09:44:18.909Z,2.90
2023-04-22T09:49:24.530Z,2.47
2023-04-22T09:54:29.906Z,3.63
2023-04-22T09:59:35.467Z,2.03
2023-04-22T10:04:40.899Z,3.30
2023-04-22T10:09:46.619Z,2.05
2023-04-22T10:14:52.505Z,2.17
2023-04-22T10:20:00.177Z,2.38
2023-04-22T10:25:06.578Z,2.42
2023-04-22T10:30:29.833Z,2.53
2023-04-22T10:35:35.498Z,2.83
2023-04-22T10:41:01.519Z,2.28
2023-04-22T10:46:07.476Z,1.83
2023-04-22T10:51:43.003Z,2.50
2023-04-22T10:57:09.073Z,2.20
2023-04-22T11:02:17.385Z,2.85
2023-04-22T11:07:32.278Z,1.13
2023-04-22T11:13:02.999Z,2.70
2023-04-22T11:18:24.510Z,2.80
2023-04-22T11:23:29.873Z,2.70
2023-04-22T11:28:35.357Z,1.85
2023-04-22T11:33:41.395Z,3.17
2023-04-22T11:38:59.314Z,2.15
2023-04-22T11:44:04.920Z,2.60
2023-04-22T11:49:15.033Z,1.80
2023-04-22T11:54:37.633Z,2.45
2023-04-22T11:59:43.597Z,1.85
2023-04-22T12:04:49.006Z,1.77
2023-04-22T12:09:57.854Z,1.35
2023-04-22T12:15:13.814Z,2.13
2023-04-22T12:20:20.075Z,1.92
2023-04-22T12:25:26.001Z,2.15
2023-04-22T12:30:31.893Z,2.17
2023-04-22T12:35:37.630Z,1.83
2023-04-22T12:40:43.099Z,1.75
2023-04-22T12:45:48.762Z,1.67
2023-04-22T12:50:55.040Z,3.15
2023-04-22T12:56:00.635Z,1.73
2023-04-22T13:01:06.839Z,1.95
2023-04-22T13:06:12.049Z,2.25
2023-04-22T13:11:17.504Z,1.75
2023-04-22T13:16:23.268Z,1.67
2023-04-22T13:21:29.926Z,1.10
2023-04-22T13:26:37.321Z,1.67
2023-04-22T13:31:46.824Z,2.17
2023-04-22T13:36:52.317Z,1.80
2023-04-22T13:41:58.125Z,1.48
2023-04-22T13:47:04.097Z,2.75
2023-04-22T13:52:09.529Z,2.92
2023-04-22T13:57:15.342Z,2.13
2023-04-22T14:02:21.009Z,2.13
2023-04-22T14:07:26.650Z,2.47
2023-04-22T14:12:32.157Z,1.73
2023-04-22T14:17:37.782Z,1.95
2023-04-22T14:22:43.232Z,1.92
2023-04-22T14:27:49.158Z,1.88
2023-04-22T14:32:54.869Z,1.50
2023-04-22T14:38:00.452Z,2.15
2023-04-22T14:43:07.795Z,1.70
2023-04-22T14:48:13.351Z,1.77
2023-04-22T14:53:18.874Z,2.05
2023-04-22T14:58:24.569Z,1.85
2023-04-22T15:03:30.524Z,1.67
2023-04-22T15:08:36.945Z,2.45
2023-04-22T15:13:42.530Z,2.08
2023-04-22T15:18:48.144Z,2.47
2023-04-22T15:23:53.748Z,2.00
2023-04-22T15:28:59.042Z,2.13
2023-04-22T15:34:04.330Z,1.70
2023-04-22T15:39:11.237Z,1.13
2023-04-22T15:44:17.468Z,1.60
2023-04-22T15:49:22.997Z,1.92
2023-04-22T15:54:28.404Z,2.08
2023-04-22T15:59:33.902Z,1.40
2023-04-22T16:04:39.486Z,1.05
2023-04-22T16:09:45.107Z,0.90
2023-04-22T16:14:50.660Z,1.27
2023-04-22T16:19:56.305Z,1.63
2023-04-22T16:25:02.053Z,1.98
2023-04-22T16:30:09.769Z,1.83
2023-04-22T16:35:15.424Z,1.15
2023-04-22T16:40:20.918Z,0.95
2023-04-22T16:45:26.690Z,1.20
2023-04-22T16:50:32.796Z,1.23
2023-04-22T16:55:38.945Z,1.73
2023-04-22T17:00:45.700Z,2.30
2023-04-22T17:05:55.203Z,2.95
2023-04-22T17:11:00.468Z,0.90
2023-04-22T17:16:06.359Z,2.28
2023-04-22T17:21:11.846Z,1.25
2023-04-22T17:26:17.466Z,2.05
2023-04-22T17:31:23.969Z,1.55
2023-04-22T17:36:29.777Z,1.83
2023-04-22T17:41:35.136Z,2.20
2023-04-22T17:46:42.153Z,1.35
2023-04-22T17:51:47.633Z,2.03
2023-04-22T17:56:52.948Z,1.75
2023-04-22T18:01:59.667Z,1.65
2023-04-22T18:07:06.363Z,2.20
2023-04-22T18:12:11.827Z,2.08
2023-04-22T18:17:23.222Z,1.77
2023-04-22T18:22:29.045Z,1.98
2023-04-22T18:27:34.314Z,1.98
2023-04-22T18:32:39.975Z,3.53
2023-04-22T18:37:46.161Z,2.50
2023-04-22T18:42:51.556Z,2.55
2023-04-22T18:47:57.406Z,3.03
2023-04-22T18:53:02.693Z,3.20
2023-04-22T18:58:08.383Z,2.83
2023-04-22T19:03:14.063Z,4.03
2023-04-22T19:08:19.580Z,3.90
2023-04-22T19:13:29.838Z,2.42
2023-04-22T19:18:37.523Z,3.60
2023-04-22T19:23:42.934Z,3.50
2023-04-22T19:28:49.292Z,3.38
2023-04-22T19:33:54.828Z,2.42
2023-04-22T19:39:00.278Z,3.60
2023-04-22T19:44:05.625Z,3.65
2023-04-22T19:49:11.508Z,2.35
2023-04-22T19:54:21.090Z,2.85
2023-04-22T19:59:28.600Z,3.30
2023-04-22T20:04:34.572Z,2.85
2023-04-22T20:09:42.189Z,3.22
2023-04-22T20:14:48.880Z,3.13
2023-04-22T20:19:55.720Z,3.47
2023-04-22T20:25:04.051Z,4.03
2023-04-22T20:30:14.207Z,4.03
2023-04-22T20:35:20.642Z,3.47
2023-04-22T20:40:26.764Z,3.00
2023-04-22T20:45:32.727Z,3.60
2023-04-22T20:50:38.730Z,5.05
2023-04-22T20:55:44.289Z,3.95
2023-04-22T21:00:49.814Z,3.22
2023-04-22T21:05:56.947Z,3.33
2023-04-22T21:11:02.867Z,2.88
2023-04-22T21:16:12.618Z,3.75
2023-04-22T21:21:20.414Z,4.13
2023-04-22T21:26:27.831Z,4.35
2023-04-22T21:31:34.702Z,3.00
2023-04-22T21:36:40.441Z,4.25
2023-04-22T21:41:46.262Z,3.33
2023-04-22T21:46:51.788Z,3.97
2023-04-22T21:51:57.300Z,3.83
2023-04-22T21:57:03.008Z,5.20
2023-04-22T22:02:08.778Z,2.90
2023-04-22T22:07:15.336Z,3.58
2023-04-22T22:12:21.721Z,4.75
2023-04-22T22:17:28.378Z,3.28
2023-04-22T22:22:34.270Z,3.30
2023-04-22T22:27:49.606Z,3.72
2023-04-22T22:32:55.135Z,4.28
2023-04-22T22:38:00.673Z,4.80
2023-04-22T22:43:06.475Z,6.40
2023-04-22T22:48:12.149Z,5.38
2023-04-22T22:53:17.606Z,5.38
2023-04-22T22:58:22.976Z,3.75
2023-04-22T23:03:28.579Z,5.15
2023-04-22T23:08:34.209Z,5.97
2023-04-22T23:13:39.868Z,5.65
2023-04-22T23:18:45.945Z,5.05
2023-04-22T23:23:51.582Z,5.20
2023-04-22T23:28:57.746Z,5.55
2023-04-22T23:34:05.428Z,4.88
2023-04-22T23:39:10.805Z,5.30
2023-04-22T23:44:16.018Z,5.22
2023-04-22T23:49:21.563Z,5.15
2023-04-22T23:54:27.388Z,5.32
2023-04-22T23:59:33.141Z,5.38
